Latest Weather Observations for Mardie

IDW60801

Issued at 7:05 pm WST Thursday 27 November 2014 (issued every 30 minutes, with the page automatically refreshed every 10 minutes)

About weather observations | Map of weather stations | Latest weather observations for WA | Other Formats
Station Details ID: 005008 Name: MARDIE Lat: -21.19 Lon: 115.98 Height: 11.0 m
Data from the previous 72 hours. | See also: Recent months at Mardie
Date/Time
WST
Temp
°C
App
Temp
°C
Dew
Point
Rel
Hum
%
Delta-T
°C
Wind Press
QNH
hPa
Press
MSL
hPa
Rain
since 9 am
mm
Dir
 
Spd
km/h
Gust
km/h
Spd
kts
Gust
kts
27/07:00pm 26.2 26.2 21.0 73 3.4 W 22 30 12 16 1009.9 1009.9 0.0
27/06:30pm 27.3 27.9 21.3 69 4.0 W 20 28 11 15 1009.6 1009.6 0.0
27/06:00pm 28.0 28.2 21.3 67 4.5 W 22 32 12 17 1009.1 1009.1 0.0
27/05:30pm 28.9 29.1 21.4 64 5.0 WNW 22 32 12 17 1008.8 1008.8 0.0
27/05:00pm 29.6 29.8 21.3 61 5.6 NW 22 30 12 16 1008.6 1008.6 0.0
27/04:30pm 30.4 30.2 20.6 55 6.5 NNW 22 33 12 18 1008.5 1008.5 0.0
27/04:00pm 30.9 31.9 20.2 53 7.1 N 15 30 8 16 1008.4 1008.4 0.0
27/03:30pm 30.9 30.8 19.9 52 7.2 N 20 33 11 18 1008.4 1008.4 0.0
27/03:00pm 32.1 31.0 19.4 47 8.3 N 24 37 13 20 1008.6 1008.6 0.0
27/02:30pm 32.3 32.4 19.9 48 8.2 N 19 28 10 15 1008.6 1008.6 0.0
27/02:00pm 32.1 31.9 19.7 48 8.2 N 20 35 11 19 1008.8 1008.8 0.0
27/01:30pm 32.4 32.3 19.6 46 8.4 N 19 32 10 17 1009.0 1009.0 0.0
27/01:00pm 33.2 32.2 18.9 42 9.4 NNW 22 35 12 19 1009.0 1009.0 0.0
27/12:30pm 33.6 33.0 18.9 41 9.6 N 20 33 11 18 1009.1 1009.1 0.0
27/12:00pm 32.7 31.9 18.5 43 9.2 N 20 32 11 17 1009.2 1009.2 0.0
27/11:30am 33.1 32.5 18.5 42 9.5 NNW 19 33 10 18 1009.4 1009.4 0.0
27/11:00am 33.8 33.5 19.5 43 9.5 NNW 20 26 11 14 1009.3 1009.3 0.0
27/10:30am 34.0 34.6 15.9 33 11.4 ENE 7 15 4 8 1009.4 1009.4 0.0
27/10:00am 33.4 34.5 16.7 36 10.6 N 6 15 3 8 1009.7 1009.7 0.0
27/09:30am 32.3 34.2 17.7 41 9.4 E 4 7 2 4 1010.1 1010.1 0.0
27/09:00am 30.6 32.9 17.7 46 8.2 S 2 6 1 3 1010.4 1010.4 0.0
27/08:30am 29.2 30.9 18.0 51 7.1 S 6 13 3 7 1010.3 1010.3 0.0
27/08:00am 27.5 29.1 18.2 57 5.9 S 7 11 4 6 1010.3 1010.3 0.0
27/07:30am 25.9 27.1 18.3 63 4.8 SW 9 13 5 7 1009.9 1009.9 0.0
27/07:00am 24.6 25.8 18.3 68 4.0 SW 9 13 5 7 1010.0 1010.0 0.0
27/06:30am 23.7 25.4 18.6 73 3.2 SW 7 13 4 7 1009.9 1009.9 0.0
27/06:00am 23.1 25.1 19.1 78 2.5 SW 7 11 4 6 1009.6 1009.6 0.0
27/05:30am 22.5 24.9 19.7 84 1.8 SW 6 9 3 5 1009.3 1009.3 0.0
27/05:00am 22.5 24.9 20.0 86 1.6 SW 7 9 4 5 1009.1 1009.1 0.0
27/04:30am 22.7 25.4 20.2 86 1.6 SW 6 7 3 4 1009.1 1009.1 0.0
27/04:00am 22.9 25.6 20.2 85 1.7 SW 6 7 3 4 1009.0 1009.0 0.0
27/03:30am 23.1 26.0 20.6 86 1.6 SW 6 7 3 4 1009.0 1009.0 0.0
27/03:00am 23.2 25.9 20.3 84 1.9 SW 6 7 3 4 1008.9 1008.9 0.0
27/02:30am 23.5 26.1 20.4 83 2.0 SW 7 11 4 6 1008.8 1008.8 0.0
27/02:00am 23.7 25.5 20.4 82 2.1 SW 11 13 6 7 1008.9 1008.9 0.0
27/01:30am 24.0 25.6 20.7 82 2.2 SW 13 17 7 9 1008.9 1008.9 0.0
27/01:00am 24.2 25.8 20.7 81 2.3 SW 13 15 7 8 1008.9 1008.9 0.0
27/12:30am 24.5 25.9 21.0 81 2.3 SW 15 20 8 11 1009.3 1009.3 0.0
27/12:00am 24.8 26.0 21.5 82 2.2 SW 17 24 9 13 1009.5 1009.5 0.0
 
Date/Time
WST
Temp
°C
App
Temp
°C
Dew
Point
Rel
Hum
%
Delta-T
°C
Wind Press
QNH
hPa
Press
MSL
hPa
Rain
since 9 am
mm
Dir
 
Spd
km/h
Gust
km/h
Spd
kts
Gust
kts
26/11:30pm 24.9 25.8 21.6 82 2.2 SW 19 28 10 15 1009.5 1009.5 0.0
26/11:00pm 24.9 25.9 21.8 83 2.1 WSW 19 24 10 13 1009.4 1009.4 0.0
26/10:30pm 25.0 26.8 21.9 83 2.1 WSW 15 20 8 11 1009.3 1009.3 0.0
26/10:00pm 25.1 26.2 22.0 83 2.1 WSW 19 24 10 13 1009.1 1009.1 0.0
26/09:30pm 25.3 26.8 22.0 82 2.2 WSW 17 24 9 13 1008.9 1008.9 0.0
26/09:00pm 25.6 26.8 22.1 81 2.3 W 19 24 10 13 1008.7 1008.7 0.0
26/08:30pm 25.9 26.9 21.8 78 2.7 W 19 26 10 14 1008.5 1008.5 0.0
26/08:00pm 26.3 27.8 21.3 74 3.3 W 15 20 8 11 1008.4 1008.4 0.0
26/07:30pm 26.4 26.9 20.9 72 3.6 W 19 24 10 13 1008.1 1008.1 0.0
26/07:00pm 26.7 27.2 20.8 70 3.9 W 19 24 10 13 1007.8 1007.8 0.0
26/06:30pm 27.2 28.3 21.2 69 4.0 W 17 22 9 12 1007.5 1007.5 0.0
26/06:00pm 27.7 28.6 21.5 69 4.1 WNW 19 26 10 14 1007.2 1007.2 0.0
26/05:30pm 28.8 29.7 21.6 65 4.8 WNW 19 24 10 13 1006.9 1006.9 0.0
26/05:00pm 29.1 29.9 21.3 62 5.2 NW 19 28 10 15 1006.9 1006.9 0.0
26/04:30pm 30.4 30.8 20.6 55 6.5 NNW 19 30 10 16 1006.8 1006.8 0.0
26/04:00pm 31.0 31.1 20.0 52 7.3 NNW 19 32 10 17 1006.8 1006.8 0.0
26/03:30pm 31.6 31.5 19.9 50 7.7 N 20 35 11 19 1007.0 1007.0 0.0
26/03:00pm 32.6 31.6 18.8 44 9.0 N 22 35 12 19 1007.3 1007.3 0.0
26/02:30pm 33.2 31.5 18.2 41 9.7 N 24 39 13 21 1007.4 1007.4 0.0
26/02:00pm 33.2 29.9 17.0 38 10.3 N 30 41 16 22 1007.4 1007.4 0.0
26/01:30pm 33.0 29.9 17.6 40 9.9 N 30 43 16 23 1007.5 1007.5 0.0
26/01:00pm 34.1 30.7 17.8 38 10.5 N 32 44 17 24 1007.7 1007.7 0.0
26/12:30pm 33.8 31.2 18.7 40 9.9 N 30 39 16 21 1007.8 1007.8 0.0
26/12:00pm 34.2 30.8 17.8 37 10.6 NNE 32 44 17 24 1008.1 1008.1 0.0
26/11:30am 34.0 30.0 16.8 35 11.0 NNE 33 46 18 25 1008.6 1008.6 0.0
26/11:00am 33.5 30.4 18.4 40 9.8 NNE 32 44 17 24 1008.7 1008.7 0.0
26/10:30am 32.9 30.8 19.0 43 9.1 N 28 43 15 23 1009.0 1009.0 0.0
26/10:00am 33.0 29.9 17.6 40 9.9 N 30 43 16 23 1009.2 1009.2 0.0
26/09:30am 33.5 31.6 16.8 36 10.6 N 22 41 12 22 1009.5 1009.5 0.0
26/09:00am 33.3 29.3 15.3 34 11.2 NNE 30 43 16 23 1009.6 1009.6 0.0
26/08:30am 32.0 30.3 17.1 41 9.5 NE 22 33 12 18 1009.8 1009.8 0.0
26/08:00am 29.5 29.1 18.9 53 6.9 NE 19 28 10 15 1009.9 1009.9 0.0
26/07:30am 28.0 30.2 20.3 63 5.1 E 9 17 5 9 1009.8 1009.8 0.0
26/07:00am 26.7 31.2 21.5 73 3.5 CALM 0 0 0 0 1009.9 1009.9 0.0
26/06:30am 25.4 30.1 21.9 81 2.3 CALM 0 0 0 0 1009.9 1009.9 0.0
26/06:00am 24.3 28.5 21.8 86 1.7 SE 2 4 1 2 1009.7 1009.7 0.0
26/05:30am 24.1 28.0 21.2 84 1.9 SE 2 4 1 2 1009.3 1009.3 0.0
26/05:00am 24.4 28.5 21.5 84 1.9 SE 2 4 1 2 1009.0 1009.0 0.0
26/04:30am 24.6 28.5 21.9 85 1.8 SE 4 4 2 2 1008.9 1008.9 0.0
26/04:00am 24.5 27.6 22.2 87 1.5 SE 9 11 5 6 1008.9 1008.9 0.0
26/03:30am 24.4 27.8 22.7 90 1.1 SSE 9 13 5 7 1009.0 1009.0 0.0
26/03:00am 24.4 27.8 22.7 90 1.1 SW 9 15 5 8 1008.4 1008.4 0.0
26/02:30am 24.5 27.2 22.8 90 1.1 SW 13 17 7 9 1008.2 1008.2 0.0
26/02:00am 24.6 27.3 22.8 90 1.2 SW 13 19 7 10 1008.1 1008.1 0.0
26/01:30am 24.6 27.8 23.0 91 1.1 WSW 11 13 6 7 1008.1 1008.1 0.0
26/01:00am 24.6 28.0 22.7 89 1.3 WSW 9 15 5 8 1008.1 1008.1 0.0
26/12:30am 24.6 27.9 22.5 88 1.4 WSW 9 13 5 7 1008.4 1008.4 0.0
26/12:00am 24.9 28.5 22.4 86 1.7 W 7 11 4 6 1008.7 1008.7 0.0
 
Date/Time
WST
Temp
°C
App
Temp
°C
Dew
Point
Rel
Hum
%
Delta-T
°C
Wind Press
QNH
hPa
Press
MSL
hPa
Rain
since 9 am
mm
Dir
 
Spd
km/h
Gust
km/h
Spd
kts
Gust
kts
25/11:30pm 25.1 27.6 22.4 85 1.8 W 13 19 7 10 1008.9 1008.9 0.0
25/11:00pm 25.4 27.3 22.1 82 2.2 W 15 20 8 11 1008.8 1008.8 0.0
25/10:30pm 25.5 27.5 22.2 82 2.2 W 15 20 8 11 1008.9 1008.9 0.0
25/10:00pm 25.6 27.5 22.1 81 2.3 W 15 24 8 13 1008.6 1008.6 0.0
25/09:30pm 25.8 27.4 22.1 80 2.5 W 17 22 9 12 1008.5 1008.5 0.0
25/09:00pm 26.0 27.7 21.7 77 2.9 W 15 22 8 12 1008.3 1008.3 0.0
25/08:30pm 26.1 27.4 21.7 77 2.9 W 17 24 9 13 1008.0 1008.0 0.0
25/08:00pm 26.4 28.1 21.6 75 3.2 W 15 24 8 13 1007.7 1007.7 0.0
25/07:30pm 26.7 27.7 21.0 71 3.8 W 17 24 9 13 1007.5 1007.5 0.0
25/07:00pm 27.0 27.1 21.1 70 3.9 WNW 22 33 12 18 1007.0 1007.0 0.0
25/06:30pm 27.7 28.1 21.0 67 4.4 WNW 20 32 11 17 1006.7 1006.7 0.0
25/06:00pm 28.1 27.7 20.9 65 4.8 WNW 24 32 13 17 1006.5 1006.5 0.0
25/05:30pm 29.3 27.6 19.9 57 6.2 W 28 39 15 21 1006.3 1006.3 0.0
25/05:00pm 31.0 29.1 19.4 50 7.6 W 28 33 15 18 1005.8 1005.8 0.0
25/04:30pm 32.0 30.1 18.6 45 8.7 W 26 33 14 18 1005.7 1005.7 0.0
25/04:00pm 32.7 30.2 18.1 42 9.5 W 28 37 15 20 1005.7 1005.7 0.0
25/03:30pm 33.8 31.6 17.9 38 10.3 WNW 26 35 14 19 1005.8 1005.8 0.0
25/03:00pm 33.9 31.1 17.2 37 10.7 W 28 35 15 19 1006.2 1006.2 0.0
25/02:30pm 34.8 31.7 16.6 33 11.6 W 28 35 15 19 1006.3 1006.3 0.0
25/02:00pm 36.1 33.5 16.8 32 12.4 W 26 33 14 18 1006.3 1006.3 0.0
25/01:30pm 36.7 34.3 16.3 30 13.0 WNW 24 30 13 16 1006.8 1006.8 0.0
25/01:00pm 35.6 33.8 17.8 35 11.6 WNW 24 30 13 16 1007.1 1007.1 0.0
25/12:30pm 35.4 33.5 16.7 33 11.9 WNW 22 30 12 16 1007.5 1007.5 0.0
25/12:00pm 36.0 34.3 16.2 31 12.6 WNW 20 26 11 14 1008.1 1008.1 0.0
25/11:30am 35.9 34.3 16.1 30 12.6 WNW 19 24 10 13 1008.5 1008.5 0.0
25/11:00am 36.2 35.1 15.3 28 13.1 W 15 24 8 13 1008.8 1008.8 0.0
25/10:30am 36.0 33.4 9.5 20 15.3 WSW 13 22 7 12 1009.1 1009.1 0.0
25/10:00am 35.6 32.8 9.9 21 14.9 SW 15 22 8 12 1009.4 1009.4 0.0
25/09:30am 33.7 31.2 10.9 25 13.3 S 15 22 8 12 1009.5 1009.5 0.0
25/09:00am 32.8 30.7 11.3 27 12.6 SSW 13 20 7 11 1009.7 1009.7 0.0
25/08:30am 30.6 29.5 13.0 34 10.5 SSW 11 17 6 9 1009.9 1009.9 0.0
25/08:00am 28.5 27.6 13.6 40 8.9 SSW 11 19 6 10 1009.8 1009.8 0.0
25/07:30am 27.2 26.8 15.2 47 7.3 SW 11 17 6 9 1009.6 1009.6 0.0
25/07:00am 25.7 25.3 16.3 56 5.8 SW 13 19 7 10 1009.6 1009.6 0.0
25/06:30am 24.5 24.5 17.2 63 4.5 WSW 13 17 7 9 1009.5 1009.5 0.0
25/06:00am 22.9 23.9 16.9 69 3.7 WSW 7 13 4 7 1009.5 1009.5 0.0
25/05:30am 21.9 22.8 16.6 72 3.2 WSW 7 11 4 6 1009.2 1009.2 0.0
25/05:00am 21.8 22.7 16.7 73 3.1 WSW 7 9 4 5 1009.1 1009.1 0.0
25/04:30am 22.3 23.4 17.0 72 3.2 WSW 7 7 4 4 1009.0 1009.0 0.0
25/04:00am 23.0 23.9 17.5 71 3.4 WSW 9 11 5 6 1009.0 1009.0 0.0
25/03:30am 23.4 24.5 18.1 72 3.3 WSW 9 13 5 7 1009.1 1009.1 0.0
25/03:00am 23.5 25.0 18.8 75 3.0 WSW 9 11 5 6 1009.0 1009.0 0.0
25/02:30am 23.9 25.8 19.8 78 2.6 SW 9 13 5 7 1009.1 1009.1 0.0
25/02:00am 24.2 26.4 20.5 80 2.4 WSW 9 13 5 7 1009.1 1009.1 0.0
25/01:30am 23.8 26.0 19.3 76 2.9 WSW 6 7 3 4 1009.3 1009.3 0.0
25/01:00am 24.2 26.3 19.3 74 3.1 WSW 7 11 4 6 1009.5 1009.5 0.0
25/12:30am 24.1 26.1 19.2 74 3.1 WSW 7 11 4 6 1009.6 1009.6 0.0
25/12:00am 24.5 26.2 19.3 73 3.3 WSW 9 13 5 7 1009.9 1009.9 0.0
 
Date/Time
WST
Temp
°C
App
Temp
°C
Dew
Point
Rel
Hum
%
Delta-T
°C
Wind Press
QNH
hPa
Press
MSL
hPa
Rain
since 9 am
mm
Dir
 
Spd
km/h
Gust
km/h
Spd
kts
Gust
kts
24/11:30pm 24.7 26.5 19.5 73 3.3 WSW 9 13 5 7 1010.0 1010.0 0.0
24/11:00pm 24.9 26.8 19.7 73 3.4 WSW 9 13 5 7 1010.2 1010.2 0.0
24/10:30pm 25.1 26.8 20.1 74 3.2 W 11 17 6 9 1010.3 1010.3 0.0
24/10:00pm 25.3 26.3 20.3 74 3.3 WSW 15 19 8 10 1010.3 1010.3 0.0
24/09:30pm 25.6 26.6 20.2 72 3.5 W 15 20 8 11 1010.2 1010.2 0.0
24/09:00pm 25.9 26.7 19.8 69 4.0 W 15 20 8 11 1010.0 1010.0 0.0
24/08:30pm 26.3 27.4 19.7 67 4.3 W 13 20 7 11 1009.7 1009.7 0.0
24/08:00pm 26.4 27.2 19.8 67 4.3 WSW 15 20 8 11 1009.4 1009.4 0.0
24/07:30pm 26.6 27.1 20.0 67 4.3 W 17 20 9 11 1009.1 1009.1 0.0

Other Formats:

Comma delimited format used in spreadsheet applications
http://www.bom.gov.au/fwo/IDW60801/IDW60801.94306.axf

JavaScript Object Notation format (JSON) in row-major order
http://www.bom.gov.au/fwo/IDW60801/IDW60801.94306.json